Time;durP1;ratioP1;P1;durP2;ratioP2;P2;SDS_P1;SDS_P2;PMS_P1;PMS_P2;Temp;Humidity;BMP_temperature;BMP_pressure;BME280_temperature;BME280_humidity;BME280_pressure;Samples;Min_cycle;Max_cycle;Signal;HPM_P1;HPM_P2
2023/03/06 00:01:00;;;;;;;78.25;48.28;;;-0.80;99.90;;;;;;5052218;28;20037;-60
2023/03/06 00:03:26;;;;;;;217.55;118.30;;;-0.90;99.90;;;;;;5052446;28;20028;-60
2023/03/06 00:05:56;;;;;;;109.20;65.72;;;-0.90;99.90;;;;;;5052023;28;20029;-60
2023/03/06 00:08:22;;;;;;;72.93;44.53;;;-0.90;99.90;;;;;;5051765;28;20024;-60
2023/03/06 00:10:48;;;;;;;78.88;47.78;;;-0.90;99.90;;;;;;5051955;28;20036;-60
2023/03/06 00:13:17;;;;;;;94.88;54.28;;;-0.80;99.90;;;;;;5051600;28;20049;-60
2023/03/06 00:15:44;;;;;;;91.40;53.15;;;-0.80;99.90;;;;;;5052323;28;20033;-60
2023/03/06 00:18:10;;;;;;;110.25;60.40;;;-0.80;99.90;;;;;;5051881;28;20382;-60
2023/03/06 00:20:38;;;;;;;222.35;95.38;;;-0.60;99.90;;;;;;5051989;28;20025;-60
2023/03/06 00:23:04;;;;;;;178.10;83.72;;;-0.50;99.90;;;;;;5051757;28;20033;-60
2023/03/06 00:25:30;;;;;;;139.57;72.63;;;-0.70;99.90;;;;;;5051697;28;20040;-60
2023/03/06 00:27:56;;;;;;;79.93;46.25;;;-1.00;99.90;;;;;;5051920;28;20024;-60
2023/03/06 00:30:23;;;;;;;70.30;42.33;;;-0.90;99.90;;;;;;5051837;28;20029;-60
2023/03/06 00:32:49;;;;;;;80.20;45.00;;;-0.90;99.90;;;;;;5051689;28;20029;-59
2023/03/06 00:35:15;;;;;;;73.30;40.45;;;-1.00;99.90;;;;;;5051867;28;20040;-60
2023/03/06 00:37:41;;;;;;;76.10;41.88;;;-0.90;99.90;;;;;;5051508;28;20096;-60
2023/03/06 00:40:11;;;;;;;75.57;40.65;;;-1.00;99.90;;;;;;5051656;28;20471;-60
2023/03/06 00:42:37;;;;;;;71.13;38.60;;;-1.10;99.90;;;;;;5051731;28;20021;-60
2023/03/06 00:45:04;;;;;;;72.88;39.72;;;-1.20;99.90;;;;;;5051517;28;20401;-60
2023/03/06 00:47:30;;;;;;;69.97;36.60;;;-1.10;99.90;;;;;;5051991;28;20092;-60
2023/03/06 00:49:55;;;;;;;68.43;38.70;;;-1.30;99.90;;;;;;5051862;28;20553;-60
2023/03/06 00:52:21;;;;;;;93.53;47.65;;;-1.40;99.90;;;;;;5051265;28;20029;-60
2023/03/06 00:54:47;;;;;;;198.48;78.82;;;-1.20;99.90;;;;;;5051427;28;20539;-60
2023/03/06 00:57:12;;;;;;;162.95;65.68;;;-1.20;99.90;;;;;;5051855;28;20025;-60
2023/03/06 00:59:38;;;;;;;147.13;64.53;;;-1.30;99.90;;;;;;5051903;28;20047;-60
2023/03/06 01:02:04;;;;;;;142.35;63.38;;;-1.40;99.90;;;;;;5051552;28;20393;-60
2023/03/06 01:04:30;;;;;;;123.18;57.53;;;-1.30;99.90;;;;;;5051459;28;20497;-60
2023/03/06 01:06:55;;;;;;;113.47;52.28;;;-1.20;99.90;;;;;;5051175;28;20029;-60
2023/03/06 01:09:21;;;;;;;91.82;46.65;;;-1.10;99.90;;;;;;5051737;28;20025;-60
2023/03/06 01:11:47;;;;;;;93.78;46.72;;;-1.10;99.90;;;;;;5051407;28;20441;-60
2023/03/06 01:14:13;;;;;;;93.90;48.35;;;-1.20;99.90;;;;;;5051191;28;20048;-60
2023/03/06 01:16:38;;;;;;;97.43;50.58;;;-1.30;99.90;;;;;;5051803;28;20025;-60
2023/03/06 01:19:04;;;;;;;202.38;80.60;;;-1.30;99.90;;;;;;5051524;28;20043;-60
2023/03/06 01:21:30;;;;;;;205.82;85.15;;;-1.30;99.90;;;;;;5051015;28;20025;-60
2023/03/06 01:23:56;;;;;;;101.55;50.10;;;-1.30;99.90;;;;;;5051215;28;20107;-60
2023/03/06 01:26:21;;;;;;;109.68;52.05;;;-1.20;99.90;;;;;;5055210;28;20504;-60
2023/03/06 01:28:47;;;;;;;104.93;50.05;;;-1.20;99.90;;;;;;5054847;28;20466;-60
2023/03/06 01:31:13;;;;;;;95.22;48.47;;;-1.40;99.90;;;;;;5054874;28;20017;-59
2023/03/06 01:33:38;;;;;;;142.27;61.15;;;-1.50;99.90;;;;;;5054433;28;20086;-59
2023/03/06 01:36:06;;;;;;;113.97;54.08;;;-1.50;99.90;;;;;;5054960;28;20025;-60
2023/03/06 01:38:33;;;;;;;135.38;61.25;;;-1.20;99.90;;;;;;5054763;28;20033;-60
2023/03/06 01:41:00;;;;;;;96.88;48.50;;;-1.20;99.90;;;;;;5054639;28;20051;-60
2023/03/06 01:43:32;;;;;;;88.07;43.95;;;-1.10;99.90;;;;;;5054461;28;20040;-60
2023/03/06 01:46:21;;;;;;;88.88;43.30;;;-1.20;99.90;;;;;;5055005;28;20032;-60
2023/03/06 01:48:52;;;;;;;247.88;87.60;;;-1.20;99.90;;;;;;5054157;28;20028;-60
2023/03/06 01:51:18;;;;;;;209.55;80.47;;;-1.30;99.90;;;;;;5054807;28;20147;-60
2023/03/06 01:53:45;;;;;;;109.05;50.08;;;-1.20;99.90;;;;;;5054248;28;20115;-59
2023/03/06 01:56:13;;;;;;;79.70;39.42;;;-1.30;99.90;;;;;;5054386;28;20029;-60
2023/03/06 01:58:42;;;;;;;94.43;47.15;;;-1.40;99.90;;;;;;5054384;28;20027;-60
2023/03/06 02:01:10;;;;;;;69.43;41.45;;;-1.40;99.90;;;;;;5054714;28;20027;-60
2023/03/06 02:03:37;;;;;;;112.57;59.22;;;-1.40;99.90;;;;;;5053834;28;20029;-60
2023/03/06 02:06:03;;;;;;;85.97;49.78;;;-1.40;99.90;;;;;;5054018;28;20025;-59
2023/03/06 02:08:30;;;;;;;68.28;38.03;;;-1.20;99.90;;;;;;5054616;28;20032;-60
2023/03/06 02:11:01;;;;;;;61.42;36.42;;;-1.20;99.90;;;;;;5054076;28;20021;-60
2023/03/06 02:13:28;;;;;;;63.50;35.35;;;-1.30;99.90;;;;;;5053521;28;20061;-60
2023/03/06 02:15:54;;;;;;;62.22;36.45;;;-1.30;99.90;;;;;;5054206;28;20024;-60
2023/03/06 02:18:20;;;;;;;62.15;35.90;;;-1.30;99.90;;;;;;5053544;28;20112;-60
2023/03/06 02:20:53;;;;;;;56.22;33.22;;;-1.20;99.90;;;;;;5053849;28;20097;-61
2023/03/06 02:23:24;;;;;;;42.95;27.13;;;-1.20;99.90;;;;;;5053851;28;20032;-61
2023/03/06 02:25:50;;;;;;;62.05;37.85;;;-1.00;99.90;;;;;;5053911;28;20028;-61
2023/03/06 02:28:19;;;;;;;58.15;34.70;;;-0.80;99.90;;;;;;5053781;28;20036;-60
2023/03/06 02:30:46;;;;;;;69.45;43.45;;;-0.60;99.90;;;;;;5052396;28;20488;-61
2023/03/06 02:33:14;;;;;;;58.10;34.55;;;-0.50;99.90;;;;;;5053279;28;20041;-61
2023/03/06 02:35:45;;;;;;;62.35;38.53;;;-0.30;99.90;;;;;;5053680;28;20459;-61
2023/03/06 02:38:14;;;;;;;62.45;37.97;;;-0.20;99.90;;;;;;5053692;28;20520;-61
2023/03/06 02:40:45;;;;;;;74.53;39.72;;;-0.10;99.90;;;;;;5053561;28;20021;-61
2023/03/06 02:43:13;;;;;;;75.57;40.50;;;0.00;99.90;;;;;;5053548;28;20103;-62
2023/03/06 02:45:43;;;;;;;77.10;39.17;;;0.20;99.90;;;;;;5053415;28;20029;-61
2023/03/06 02:48:09;;;;;;;72.05;38.15;;;0.10;99.90;;;;;;5052917;28;20074;-61
2023/03/06 02:50:34;;;;;;;56.25;34.10;;;0.20;99.90;;;;;;5053771;28;20029;-61
2023/03/06 02:53:00;;;;;;;55.78;33.30;;;0.50;99.90;;;;;;5053275;28;20608;-61
2023/03/06 02:55:26;;;;;;;64.00;33.30;;;0.50;99.90;;;;;;5053283;28;20367;-61
2023/03/06 02:57:51;;;;;;;58.05;32.17;;;0.40;99.90;;;;;;5053376;28;20067;-61
2023/03/06 03:00:18;;;;;;;62.08;34.35;;;0.50;99.90;;;;;;5053154;28;20102;-61
2023/03/06 03:02:44;;;;;;;53.67;31.35;;;0.50;99.90;;;;;;5052713;28;20044;-61
2023/03/06 03:05:10;;;;;;;51.70;32.30;;;0.70;99.90;;;;;;5053013;28;20025;-60
2023/03/06 03:07:35;;;;;;;57.50;33.47;;;0.50;99.90;;;;;;5053058;28;20068;-60
2023/03/06 03:10:02;;;;;;;53.65;33.53;;;0.50;99.90;;;;;;5052964;28;20389;-61
2023/03/06 03:12:27;;;;;;;59.92;33.40;;;0.60;99.90;;;;;;5053222;28;20110;-60
2023/03/06 03:14:54;;;;;;;63.60;36.65;;;0.70;99.90;;;;;;5052724;28;20490;-61
2023/03/06 03:17:21;;;;;;;55.90;34.33;;;0.60;99.90;;;;;;5052377;28;20060;-60
2023/03/06 03:19:47;;;;;;;60.60;36.47;;;0.80;99.90;;;;;;5052760;28;20115;-59
2023/03/06 03:22:13;;;;;;;59.75;35.60;;;0.90;99.90;;;;;;5052731;28;20043;-59
2023/03/06 03:24:39;;;;;;;63.25;36.83;;;0.90;99.90;;;;;;5053086;28;20034;-59
2023/03/06 03:27:05;;;;;;;55.25;32.67;;;0.90;99.90;;;;;;5052619;28;20394;-59
2023/03/06 03:29:31;;;;;;;61.95;35.67;;;1.10;99.90;;;;;;5052120;28;20067;-59
2023/03/06 03:31:56;;;;;;;57.13;34.80;;;1.20;99.90;;;;;;5052657;28;20053;-59
2023/03/06 03:34:22;;;;;;;50.80;33.88;;;1.20;99.90;;;;;;5052437;28;20032;-59
2023/03/06 03:36:48;;;;;;;56.85;33.42;;;1.20;99.90;;;;;;5052449;28;20024;-59
2023/03/06 03:39:14;;;;;;;51.40;33.45;;;1.30;99.90;;;;;;5052990;28;20029;-59
2023/03/06 03:41:40;;;;;;;50.22;30.90;;;1.40;99.90;;;;;;5052381;28;20029;-59
2023/03/06 03:44:05;;;;;;;49.20;32.45;;;1.40;99.90;;;;;;5052216;28;20539;-61
2023/03/06 03:46:31;;;;;;;50.83;31.77;;;1.50;99.90;;;;;;5052142;28;20166;-59
2023/03/06 03:48:57;;;;;;;49.55;31.73;;;1.40;99.90;;;;;;5051657;28;20032;-59
2023/03/06 03:51:23;;;;;;;47.13;30.88;;;1.30;99.90;;;;;;5052249;28;20029;-61
2023/03/06 03:53:49;;;;;;;49.42;31.98;;;1.40;99.90;;;;;;5052537;28;20047;-61
2023/03/06 03:56:15;;;;;;;49.53;32.03;;;1.40;99.90;;;;;;5052245;28;20029;-60
2023/03/06 03:58:41;;;;;;;51.13;32.40;;;1.30;99.90;;;;;;5051878;28;20109;-61
2023/03/06 04:01:07;;;;;;;52.33;32.45;;;1.50;99.90;;;;;;5052082;28;20016;-59
2023/03/06 04:03:33;;;;;;;49.85;32.75;;;1.30;99.90;;;;;;5052384;28;20035;-61
2023/03/06 04:05:59;;;;;;;54.92;32.97;;;1.30;99.90;;;;;;5051931;28;20066;-60
2023/03/06 04:08:26;;;;;;;52.22;32.28;;;1.30;99.90;;;;;;5052068;28;20033;-61
2023/03/06 04:10:52;;;;;;;48.80;31.80;;;1.50;99.90;;;;;;5052157;28;20023;-60
2023/03/06 04:13:20;;;;;;;50.88;32.05;;;1.40;99.90;;;;;;5051799;28;20528;-60
2023/03/06 04:15:47;;;;;;;44.17;30.23;;;1.30;99.90;;;;;;5051881;28;20021;-59
2023/03/06 04:18:15;;;;;;;47.95;31.98;;;1.40;99.90;;;;;;5051830;28;20039;-60
2023/03/06 04:20:42;;;;;;;53.75;32.67;;;1.50;99.90;;;;;;5051945;28;20371;-61
2023/03/06 04:23:08;;;;;;;46.72;30.13;;;1.50;99.90;;;;;;5051915;28;20085;-60
2023/03/06 04:25:34;;;;;;;48.63;31.38;;;1.60;99.90;;;;;;5051743;28;20036;-61
2023/03/06 04:28:00;;;;;;;52.53;31.38;;;1.70;99.90;;;;;;5051625;28;20033;-60
2023/03/06 04:30:26;;;;;;;53.00;33.25;;;1.60;99.90;;;;;;5052344;28;20132;-60
2023/03/06 04:32:51;;;;;;;49.53;32.92;;;1.50;99.90;;;;;;5051817;28;20032;-60
2023/03/06 04:35:17;;;;;;;48.65;31.95;;;1.50;99.90;;;;;;5051658;28;20028;-61
2023/03/06 04:37:43;;;;;;;48.63;32.85;;;1.60;99.90;;;;;;5051920;28;20035;-60
2023/03/06 04:40:18;;;;;;;48.90;31.77;;;1.70;99.90;;;;;;5052086;28;20029;-60
2023/03/06 04:42:44;;;;;;;52.92;31.98;;;1.70;99.90;;;;;;5051298;28;20025;-61
2023/03/06 04:45:10;;;;;;;48.78;32.47;;;1.70;99.90;;;;;;5051535;28;20381;-61
2023/03/06 04:47:36;;;;;;;48.75;31.98;;;1.70;99.90;;;;;;5051584;28;20048;-60
2023/03/06 04:50:02;;;;;;;49.08;31.20;;;1.80;99.90;;;;;;5051546;28;20025;-59
2023/03/06 04:52:28;;;;;;;50.85;35.03;;;2.00;99.90;;;;;;5051702;28;20040;-60
2023/03/06 04:54:54;;;;;;;55.17;35.08;;;1.90;99.90;;;;;;5051947;28;20025;-60
2023/03/06 04:57:20;;;;;;;54.72;34.67;;;2.10;99.90;;;;;;5051236;28;20478;-60
2023/03/06 04:59:46;;;;;;;57.75;35.15;;;2.20;99.90;;;;;;5052717;28;20385;-60
2023/03/06 05:02:12;;;;;;;54.22;36.65;;;1.90;99.90;;;;;;5055369;28;20044;-61
2023/03/06 05:04:37;;;;;;;53.28;35.78;;;1.90;99.90;;;;;;5055707;28;20040;-60
2023/03/06 05:07:03;;;;;;;56.13;36.72;;;2.00;99.90;;;;;;5055300;28;20043;-60
2023/03/06 05:09:29;;;;;;;62.95;38.05;;;2.00;99.90;;;;;;5055163;28;20025;-60
2023/03/06 05:11:55;;;;;;;59.00;36.65;;;1.90;99.90;;;;;;5055229;28;20036;-61
2023/03/06 05:14:20;;;;;;;58.28;36.67;;;2.00;99.90;;;;;;5054714;28;20049;-61
2023/03/06 05:16:46;;;;;;;57.13;36.30;;;2.00;99.90;;;;;;5055201;28;20051;-60
2023/03/06 05:19:12;;;;;;;59.67;35.67;;;2.00;99.90;;;;;;5055104;28;20025;-61
2023/03/06 05:21:37;;;;;;;54.00;36.17;;;2.00;99.90;;;;;;5055063;28;20497;-60
2023/03/06 05:24:03;;;;;;;55.38;36.10;;;2.10;99.90;;;;;;5054940;28;20029;-60
2023/03/06 05:26:29;;;;;;;57.42;37.90;;;2.10;99.90;;;;;;5055002;28;20029;-60
2023/03/06 05:28:55;;;;;;;62.10;39.22;;;2.10;99.90;;;;;;5054838;28;20021;-60
2023/03/06 05:31:20;;;;;;;61.63;40.67;;;2.10;99.90;;;;;;5054891;28;20028;-60
2023/03/06 05:33:46;;;;;;;58.92;38.90;;;2.10;99.90;;;;;;5055226;28;20478;-60
2023/03/06 05:36:12;;;;;;;58.83;37.13;;;2.10;99.90;;;;;;5054736;28;20025;-60
2023/03/06 05:38:37;;;;;;;51.67;34.60;;;2.20;99.90;;;;;;5054724;28;20028;-60
2023/03/06 05:41:04;;;;;;;54.50;33.88;;;2.30;99.90;;;;;;5054798;28;20029;-60
2023/03/06 05:43:29;;;;;;;53.33;35.40;;;2.40;99.90;;;;;;5054347;28;20512;-60
2023/03/06 05:46:04;;;;;;;54.65;36.03;;;2.30;99.90;;;;;;5054714;28;20052;-60
2023/03/06 05:48:30;;;;;;;54.78;33.63;;;2.30;99.90;;;;;;5054406;28;20482;-60
2023/03/06 05:50:57;;;;;;;50.55;35.03;;;2.50;99.90;;;;;;5054476;28;20500;-60
2023/03/06 05:53:23;;;;;;;52.28;34.45;;;2.50;99.90;;;;;;5054292;28;20044;-60
2023/03/06 05:56:04;;;;;;;46.47;32.72;;;2.40;99.90;;;;;;5054188;28;20029;-60
2023/03/06 05:58:31;;;;;;;48.95;33.40;;;2.40;99.90;;;;;;5054606;28;20029;-60
2023/03/06 06:00:57;;;;;;;52.17;34.30;;;2.40;99.90;;;;;;5054330;28;20448;-60
2023/03/06 06:03:23;;;;;;;46.70;32.53;;;2.40;99.90;;;;;;5054320;28;20021;-60
2023/03/06 06:05:49;;;;;;;53.25;34.00;;;2.30;99.90;;;;;;5054692;28;20367;-60
2023/03/06 06:08:15;;;;;;;58.13;38.22;;;2.30;99.90;;;;;;5054151;28;20383;-60
2023/03/06 06:10:40;;;;;;;52.67;40.17;;;2.30;99.90;;;;;;5053301;28;20029;-60
2023/03/06 06:13:06;;;;;;;47.80;39.83;;;2.40;99.90;;;;;;5053949;28;20528;-60
2023/03/06 06:15:32;;;;;;;63.03;45.80;;;2.30;99.90;;;;;;5054484;28;20134;-60
2023/03/06 06:17:58;;;;;;;58.95;41.95;;;2.40;99.90;;;;;;5054156;28;20025;-60
2023/03/06 06:20:24;;;;;;;67.35;40.90;;;2.40;99.90;;;;;;5053934;28;20474;-60
2023/03/06 06:22:50;;;;;;;64.00;39.20;;;2.50;99.90;;;;;;5053858;28;20500;-60
2023/03/06 06:25:16;;;;;;;70.10;40.45;;;2.50;99.90;;;;;;5053627;28;20417;-60
2023/03/06 06:27:41;;;;;;;62.50;40.45;;;2.50;99.90;;;;;;5053815;28;20017;-60
2023/03/06 06:30:09;;;;;;;59.88;46.83;;;2.50;99.90;;;;;;5053691;28;20029;-60
2023/03/06 06:32:35;;;;;;;62.13;46.17;;;2.50;99.90;;;;;;5053675;28;20045;-60
2023/03/06 06:35:01;;;;;;;57.55;44.92;;;2.50;99.90;;;;;;5054128;28;20036;-60
2023/03/06 06:37:27;;;;;;;64.55;46.33;;;2.60;99.90;;;;;;5053829;28;20493;-60
2023/03/06 06:39:53;;;;;;;67.93;43.50;;;2.60;99.90;;;;;;5053304;28;20024;-60
2023/03/06 06:42:18;;;;;;;69.22;42.47;;;2.60;99.90;;;;;;5053749;28;20474;-60
2023/03/06 06:44:44;;;;;;;67.43;42.63;;;2.60;99.90;;;;;;5053567;28;20041;-60
2023/03/06 06:47:10;;;;;;;64.50;40.70;;;2.70;99.90;;;;;;5053652;28;20068;-60
2023/03/06 06:49:36;;;;;;;65.43;42.40;;;2.70;99.90;;;;;;5053309;28;20437;-60
2023/03/06 06:52:03;;;;;;;67.80;46.88;;;2.70;99.90;;;;;;5053356;28;20029;-60
2023/03/06 06:54:28;;;;;;;71.63;46.67;;;2.70;99.90;;;;;;5052994;28;20036;-60
2023/03/06 06:56:54;;;;;;;64.35;47.85;;;2.70;99.90;;;;;;5053222;28;20543;-60
2023/03/06 06:59:22;;;;;;;74.15;58.67;;;2.70;99.90;;;;;;5053363;28;20103;-60
2023/03/06 07:01:48;;;;;;;65.68;49.65;;;2.80;99.90;;;;;;5053588;28;20025;-60
2023/03/06 07:04:15;;;;;;;63.83;46.80;;;2.80;99.90;;;;;;5052997;28;20025;-60
2023/03/06 07:06:41;;;;;;;58.72;45.22;;;2.80;99.90;;;;;;5053094;28;20075;-60
2023/03/06 07:09:07;;;;;;;55.65;43.10;;;2.80;99.90;;;;;;5053090;28;20025;-60
2023/03/06 07:11:33;;;;;;;53.50;40.70;;;2.90;99.90;;;;;;5051749;28;20035;-60
2023/03/06 07:13:58;;;;;;;49.80;39.50;;;3.10;99.90;;;;;;5052601;28;20041;-60
2023/03/06 07:16:24;;;;;;;49.90;39.30;;;3.10;99.90;;;;;;5052951;28;20021;-61
2023/03/06 07:18:50;;;;;;;54.53;37.17;;;3.10;99.90;;;;;;5052841;28;20032;-61
2023/03/06 07:21:15;;;;;;;57.67;36.25;;;3.20;99.90;;;;;;5053272;28;20416;-60
2023/03/06 07:23:41;;;;;;;54.75;37.38;;;3.10;99.90;;;;;;5051726;28;20021;-60
2023/03/06 07:26:07;;;;;;;61.05;36.85;;;3.10;99.90;;;;;;5052712;28;20497;-60
2023/03/06 07:28:33;;;;;;;52.80;38.67;;;3.20;99.90;;;;;;5052790;28;20013;-61
2023/03/06 07:30:59;;;;;;;50.08;38.92;;;3.30;99.90;;;;;;5052790;28;20412;-60
2023/03/06 07:33:24;;;;;;;53.70;42.88;;;3.40;99.90;;;;;;5052630;28;20039;-60
2023/03/06 07:35:50;;;;;;;52.78;42.40;;;3.40;99.90;;;;;;5052647;28;20371;-60
2023/03/06 07:38:16;;;;;;;55.30;40.42;;;3.30;99.90;;;;;;5052074;28;20485;-61
2023/03/06 07:40:42;;;;;;;53.63;41.13;;;3.30;99.90;;;;;;5052705;28;20033;-60
2023/03/06 07:43:09;;;;;;;50.42;39.85;;;3.30;99.90;;;;;;5052192;28;20025;-60
2023/03/06 07:45:34;;;;;;;47.65;38.13;;;3.30;99.90;;;;;;5052462;28;20551;-61
2023/03/06 07:48:00;;;;;;;50.00;39.42;;;3.40;99.90;;;;;;5052278;28;20021;-60
2023/03/06 07:50:26;;;;;;;50.05;38.42;;;3.40;99.90;;;;;;5052429;28;20033;-61
2023/03/06 07:52:52;;;;;;;56.42;44.13;;;3.50;99.90;;;;;;5052001;28;20033;-62
2023/03/06 07:55:18;;;;;;;73.85;60.58;;;3.70;99.90;;;;;;5052497;28;20036;-61
2023/03/06 07:57:44;;;;;;;77.40;59.13;;;3.80;99.90;;;;;;5052321;28;20029;-60
2023/03/06 08:00:13;;;;;;;60.35;46.28;;;3.90;99.90;;;;;;5050194;28;20036;-60
2023/03/06 08:02:40;;;;;;;60.40;45.85;;;4.00;99.90;;;;;;5051500;28;20033;-61
2023/03/06 08:05:08;;;;;;;109.38;39.78;;;4.10;99.90;;;;;;5051165;28;20087;-61
2023/03/06 08:07:33;;;;;;;136.25;41.75;;;4.20;99.90;;;;;;5050980;28;20037;-60
2023/03/06 08:09:59;;;;;;;220.70;49.70;;;4.30;99.90;;;;;;5051206;28;20505;-61
2023/03/06 08:12:25;;;;;;;73.60;38.78;;;4.20;99.90;;;;;;5051221;28;20037;-61
2023/03/06 08:14:51;;;;;;;51.75;39.72;;;4.30;99.90;;;;;;5050946;28;20056;-60
2023/03/06 08:17:17;;;;;;;61.67;36.78;;;4.30;99.90;;;;;;5051037;28;20025;-61
2023/03/06 08:19:43;;;;;;;48.28;36.03;;;4.40;99.90;;;;;;5047959;28;20045;-61
2023/03/06 08:22:10;;;;;;;47.58;35.90;;;4.40;99.90;;;;;;5051003;28;20086;-60
2023/03/06 08:24:36;;;;;;;55.42;38.33;;;4.30;99.90;;;;;;5050898;28;20031;-61
2023/03/06 08:27:02;;;;;;;48.25;35.70;;;4.30;99.90;;;;;;5050923;28;20083;-60
2023/03/06 08:29:28;;;;;;;50.67;38.47;;;4.40;99.90;;;;;;5051414;28;20041;-61
2023/03/06 08:31:54;;;;;;;48.70;35.55;;;4.50;99.90;;;;;;5051046;28;20025;-63
2023/03/06 08:34:23;;;;;;;46.97;35.55;;;4.70;99.90;;;;;;5052079;28;20358;-65
2023/03/06 08:36:49;;;;;;;45.80;34.28;;;4.50;99.90;;;;;;5054970;28;20021;-65
2023/03/06 08:39:15;;;;;;;47.55;36.28;;;4.60;99.90;;;;;;5055298;28;20037;-65
2023/03/06 08:41:41;;;;;;;46.50;35.55;;;4.40;99.90;;;;;;5054981;28;20052;-62
2023/03/06 08:44:07;;;;;;;50.00;37.08;;;4.50;99.90;;;;;;5054596;28;20029;-65
2023/03/06 08:46:34;;;;;;;42.72;34.13;;;4.80;99.90;;;;;;5054986;28;20028;-63
2023/03/06 08:49:00;;;;;;;44.63;33.05;;;4.80;99.90;;;;;;5055552;28;20047;-64
2023/03/06 08:51:27;;;;;;;44.28;33.53;;;4.80;99.90;;;;;;5054807;28;20021;-64
2023/03/06 08:53:54;;;;;;;39.35;30.88;;;4.80;99.90;;;;;;5054462;28;20063;-65
2023/03/06 08:56:28;;;;;;;39.50;31.33;;;4.80;99.90;;;;;;5054380;28;20100;-66
2023/03/06 08:58:55;;;;;;;38.92;30.80;;;5.00;99.90;;;;;;5052228;28;20045;-63
2023/03/06 09:01:27;;;;;;;39.42;30.35;;;5.30;99.90;;;;;;5054560;28;20538;-64
2023/03/06 09:03:55;;;;;;;40.58;30.15;;;5.50;99.90;;;;;;5051727;28;20028;-64
2023/03/06 09:06:22;;;;;;;37.25;28.77;;;5.50;99.90;;;;;;5054339;28;20032;-62
2023/03/06 09:08:50;;;;;;;36.08;29.08;;;5.60;99.90;;;;;;5054352;28;20025;-65
2023/03/06 09:11:16;;;;;;;36.88;29.38;;;5.70;99.90;;;;;;5054513;28;20459;-64
2023/03/06 09:13:42;;;;;;;42.55;30.88;;;5.50;99.90;;;;;;5054435;28;20556;-64
2023/03/06 09:16:09;;;;;;;44.75;30.75;;;5.50;99.90;;;;;;5054208;28;20043;-64
2023/03/06 09:18:35;;;;;;;38.85;30.65;;;5.60;99.90;;;;;;5053896;28;20486;-64
2023/03/06 09:21:02;;;;;;;39.50;31.42;;;5.80;99.90;;;;;;5054356;28;20056;-64
2023/03/06 09:23:29;;;;;;;43.03;35.05;;;6.10;99.90;;;;;;5054534;28;20107;-64
2023/03/06 09:25:57;;;;;;;71.82;50.88;;;6.10;99.90;;;;;;5054094;28;20025;-64
2023/03/06 09:31:45;;;;;;;44.45;33.67;;;6.20;99.90;;;;;;5052157;28;20094;-64
2023/03/06 09:34:10;;;;;;;39.95;35.45;;;6.30;99.90;;;;;;5053799;28;20036;-64
2023/03/06 09:36:36;;;;;;;79.57;71.50;;;6.50;99.90;;;;;;5053667;28;20051;-64
2023/03/06 09:39:02;;;;;;;42.45;35.45;;;6.70;99.90;;;;;;5054591;28;20505;-63
2023/03/06 09:44:54;;;;;;;39.45;33.60;;;6.90;99.90;;;;;;5054653;28;20079;-64
2023/03/06 09:48:01;;;;;;;37.97;32.85;;;6.90;99.90;;;;;;5053753;28;20052;-64
2023/03/06 09:50:33;;;;;;;42.95;33.40;;;7.10;99.90;;;;;;5012961;28;20064;-64
2023/03/06 09:53:23;;;;;;;48.35;31.30;;;7.20;99.90;;;;;;5012450;28;20056;-64
2023/03/06 09:56:02;;;;;;;40.08;31.42;;;7.40;99.90;;;;;;5012631;28;20030;-64
2023/03/06 09:58:31;;;;;;;36.38;30.55;;;7.30;99.90;;;;;;5012522;28;20541;-64
2023/03/06 10:01:02;;;;;;;36.47;28.27;;;7.40;99.90;;;;;;5012437;28;20045;-64
2023/03/06 10:03:55;;;;;;;32.92;28.10;;;7.30;99.90;;;;;;5018572;28;20080;-64
2023/03/06 10:06:47;;;;;;;37.33;28.83;;;7.20;99.90;;;;;;5028503;28;20127;-66
2023/03/06 10:09:21;;;;;;;33.95;28.48;;;7.40;99.90;;;;;;5030228;28;20021;-66
2023/03/06 10:11:54;;;;;;;36.30;28.98;;;7.50;99.90;;;;;;5028287;28;20037;-67
2023/03/06 10:14:40;;;;;;;32.75;27.45;;;7.50;99.90;;;;;;5030569;28;20052;-65
2023/03/06 10:17:21;;;;;;;38.50;28.85;;;7.70;99.90;;;;;;5028251;28;20037;-66
2023/03/06 10:19:48;;;;;;;35.60;27.95;;;7.70;99.90;;;;;;5025945;28;20068;-65
2023/03/06 10:22:27;;;;;;;34.88;27.75;;;7.80;99.90;;;;;;5030263;28;20517;-66
2023/03/06 10:25:23;;;;;;;35.15;26.67;;;7.90;99.90;;;;;;5026183;28;20021;-65
2023/03/06 10:28:11;;;;;;;37.85;26.60;;;7.80;99.90;;;;;;5031413;28;20064;-66
2023/03/06 10:30:45;;;;;;;34.17;28.13;;;8.00;99.90;;;;;;5032041;28;20041;-64
2023/03/06 10:33:20;;;;;;;32.88;26.80;;;8.10;99.90;;;;;;5031868;28;20511;-67
2023/03/06 10:35:53;;;;;;;33.35;26.58;;;8.10;99.90;;;;;;5033618;28;20043;-67
2023/03/06 10:38:31;;;;;;;33.05;26.85;;;8.00;99.90;;;;;;5033372;28;20029;-66
2023/03/06 10:41:12;;;;;;;30.08;25.85;;;8.00;99.90;;;;;;5033324;28;20033;-67
2023/03/06 10:43:43;;;;;;;31.88;25.33;;;8.20;99.90;;;;;;5033070;28;20509;-67
2023/03/06 10:46:11;;;;;;;32.92;25.92;;;8.30;99.90;;;;;;5033041;28;20026;-67
2023/03/06 10:48:39;;;;;;;33.78;27.13;;;8.50;99.90;;;;;;5033019;28;20024;-67
2023/03/06 10:51:20;;;;;;;39.67;26.83;;;8.40;99.90;;;;;;5033187;28;20045;-66
2023/03/06 10:53:51;;;;;;;35.50;25.52;;;8.70;99.90;;;;;;5031634;28;20069;-66
2023/03/06 10:56:25;;;;;;;36.10;26.98;;;8.70;99.90;;;;;;5032895;28;20259;-66
2023/03/06 10:59:13;;;;;;;34.67;28.08;;;8.70;99.90;;;;;;5033088;28;20029;-66
2023/03/06 11:01:41;;;;;;;39.35;27.80;;;8.70;99.90;;;;;;5032879;28;20457;-65
2023/03/06 11:04:16;;;;;;;33.00;27.05;;;9.10;99.90;;;;;;5032889;28;20040;-66
2023/03/06 11:06:42;;;;;;;33.28;25.48;;;8.90;99.90;;;;;;5033018;28;20018;-67
2023/03/06 11:09:24;;;;;;;33.75;25.10;;;9.20;99.90;;;;;;5033334;28;20104;-65
2023/03/06 11:11:51;;;;;;;34.38;25.02;;;9.20;99.90;;;;;;5033228;28;20024;-65
2023/03/06 11:14:21;;;;;;;31.17;23.65;;;9.20;99.90;;;;;;5046690;28;20107;-65
2023/03/06 11:16:52;;;;;;;33.25;23.63;;;9.20;99.90;;;;;;5052823;28;20149;-65
2023/03/06 11:19:28;;;;;;;34.03;25.25;;;9.30;99.90;;;;;;5053186;28;20424;-65
2023/03/06 11:22:20;;;;;;;31.90;23.98;;;9.20;99.90;;;;;;5052826;28;20013;-64
2023/03/06 11:24:52;;;;;;;28.45;22.30;;;9.10;99.90;;;;;;5053066;28;20493;-65
2023/03/06 11:27:33;;;;;;;72.15;25.85;;;9.20;99.90;;;;;;5052627;28;20072;-65
2023/03/06 11:30:02;;;;;;;38.53;28.25;;;9.30;99.90;;;;;;5052536;28;20096;-65
2023/03/06 11:32:42;;;;;;;27.67;23.23;;;9.30;99.90;;;;;;5052350;28;20029;-64
2023/03/06 11:35:23;;;;;;;33.55;26.17;;;9.50;99.90;;;;;;5052631;28;20035;-65
2023/03/06 11:37:56;;;;;;;28.13;21.52;;;9.50;99.90;;;;;;5051296;28;20396;-65
2023/03/06 11:40:46;;;;;;;30.83;21.75;;;9.40;99.90;;;;;;5052034;28;20474;-64
2023/03/06 11:43:28;;;;;;;33.80;23.10;;;9.30;99.90;;;;;;5052057;28;20037;-64
2023/03/06 11:46:21;;;;;;;29.58;21.83;;;9.50;99.90;;;;;;5052290;28;20079;-64
2023/03/06 11:49:11;;;;;;;27.52;20.48;;;9.40;99.90;;;;;;5050644;28;20033;-64
2023/03/06 11:51:42;;;;;;;25.40;20.67;;;9.40;99.90;;;;;;5051601;28;20028;-63
2023/03/06 11:54:11;;;;;;;26.08;21.02;;;9.10;99.90;;;;;;5052017;28;20036;-65
2023/03/06 11:56:47;;;;;;;24.92;19.65;;;9.00;99.90;;;;;;5051797;28;20025;-64
2023/03/06 11:59:25;;;;;;;23.90;19.67;;;9.20;99.90;;;;;;5049906;28;20031;-63
2023/03/06 12:02:12;;;;;;;75.07;25.02;;;9.50;99.90;;;;;;5049643;28;20021;-63
2023/03/06 12:04:38;;;;;;;28.27;20.90;;;9.90;99.90;;;;;;5050716;28;20036;-64
2023/03/06 12:07:22;;;;;;;26.75;20.40;;;9.80;99.90;;;;;;5051808;28;20024;-63
2023/03/06 12:09:57;;;;;;;;;;;9.90;99.90;;;;;;5049674;28;20040;-64
2023/03/06 12:12:54;;;;;;;26.25;19.90;;;9.70;99.90;;;;;;5050848;28;20718;-64
2023/03/06 12:15:26;;;;;;;24.92;19.73;;;10.00;99.90;;;;;;5008815;28;20038;-65
2023/03/06 12:17:57;;;;;;;22.77;19.25;;;10.10;99.90;;;;;;5009677;28;20030;-65
2023/03/06 12:20:45;;;;;;;21.17;18.27;;;10.00;99.90;;;;;;5009787;28;20038;-65
2023/03/06 12:23:37;;;;;;;25.92;19.00;;;10.00;99.90;;;;;;5007798;28;20033;-65
2023/03/06 12:26:28;;;;;;;22.55;18.80;;;10.10;99.90;;;;;;5005178;28;20076;-65
2023/03/06 12:29:15;;;;;;;22.38;18.33;;;10.10;99.90;;;;;;5009659;28;20411;-65
2023/03/06 12:32:16;;;;;;;74.38;59.95;;;10.70;99.90;;;;;;5009659;28;20088;-65
2023/03/06 12:35:00;;;;;;;19.02;16.35;;;10.50;99.90;;;;;;4971219;28;20051;-65
2023/03/06 12:37:48;;;;;;;20.63;17.08;;;10.30;99.90;;;;;;4970987;28;20039;-64
2023/03/06 12:40:27;;;;;;;294.02;233.73;;;10.50;99.90;;;;;;4970906;28;20097;-63
2023/03/06 12:43:27;;;;;;;142.48;114.32;;;11.20;99.90;;;;;;4972009;28;20045;-64
2023/03/06 12:46:02;;;;;;;27.67;24.85;;;11.60;99.90;;;;;;4989980;28;20416;-64
2023/03/06 12:48:33;;;;;;;24.27;19.15;;;11.40;99.90;;;;;;4981925;28;20030;-65
2023/03/06 12:51:00;;;;;;;24.48;19.55;;;11.60;99.90;;;;;;4977693;28;20631;-65